sensor_id;sensor_type;location;lat;lon;timestamp;P1;durP1;ratioP1;P2;durP2;ratioP2
11924;SDS011;6022;48.768;18.608;2023-03-25T00:00:13;4.20;;;2.90;;
11924;SDS011;6022;48.768;18.608;2023-03-25T00:02:45;5.73;;;3.50;;
11924;SDS011;6022;48.768;18.608;2023-03-25T00:05:20;4.17;;;2.67;;
11924;SDS011;6022;48.768;18.608;2023-03-25T00:07:49;3.17;;;2.43;;
11924;SDS011;6022;48.768;18.608;2023-03-25T00:10:18;3.73;;;2.93;;
11924;SDS011;6022;48.768;18.608;2023-03-25T00:12:46;5.60;;;4.03;;
11924;SDS011;6022;48.768;18.608;2023-03-25T00:15:14;7.37;;;3.47;;
11924;SDS011;6022;48.768;18.608;2023-03-25T00:17:41;5.70;;;4.40;;
11924;SDS011;6022;48.768;18.608;2023-03-25T00:20:09;6.53;;;4.23;;
11924;SDS011;6022;48.768;18.608;2023-03-25T00:22:39;7.97;;;5.03;;
11924;SDS011;6022;48.768;18.608;2023-03-25T00:25:11;8.83;;;4.40;;
11924;SDS011;6022;48.768;18.608;2023-03-25T00:27:43;7.23;;;4.23;;
11924;SDS011;6022;48.768;18.608;2023-03-25T00:30:13;7.17;;;4.73;;
11924;SDS011;6022;48.768;18.608;2023-03-25T00:32:42;6.57;;;3.57;;
11924;SDS011;6022;48.768;18.608;2023-03-25T00:35:18;4.37;;;3.67;;
11924;SDS011;6022;48.768;18.608;2023-03-25T00:37:47;4.23;;;3.10;;
11924;SDS011;6022;48.768;18.608;2023-03-25T00:40:26;8.60;;;5.10;;
11924;SDS011;6022;48.768;18.608;2023-03-25T00:43:01;9.13;;;3.63;;
11924;SDS011;6022;48.768;18.608;2023-03-25T00:45:30;3.60;;;3.13;;
11924;SDS011;6022;48.768;18.608;2023-03-25T00:47:59;5.07;;;3.67;;
11924;SDS011;6022;48.768;18.608;2023-03-25T00:50:26;7.10;;;4.37;;
11924;SDS011;6022;48.768;18.608;2023-03-25T00:52:53;7.33;;;5.27;;
11924;SDS011;6022;48.768;18.608;2023-03-25T00:55:21;7.17;;;3.77;;
11924;SDS011;6022;48.768;18.608;2023-03-25T00:57:51;4.13;;;3.73;;
11924;SDS011;6022;48.768;18.608;2023-03-25T01:00:18;5.87;;;4.30;;
11924;SDS011;6022;48.768;18.608;2023-03-25T01:02:47;7.83;;;4.03;;
11924;SDS011;6022;48.768;18.608;2023-03-25T01:05:19;7.60;;;5.90;;
11924;SDS011;6022;48.768;18.608;2023-03-25T01:07:47;6.30;;;4.80;;
11924;SDS011;6022;48.768;18.608;2023-03-25T01:10:14;6.10;;;4.77;;
11924;SDS011;6022;48.768;18.608;2023-03-25T01:12:42;8.77;;;5.43;;
11924;SDS011;6022;48.768;18.608;2023-03-25T01:15:09;7.20;;;5.00;;
11924;SDS011;6022;48.768;18.608;2023-03-25T01:17:37;6.50;;;5.13;;
11924;SDS011;6022;48.768;18.608;2023-03-25T01:20:05;6.40;;;4.90;;
11924;SDS011;6022;48.768;18.608;2023-03-25T01:22:35;10.03;;;5.67;;
11924;SDS011;6022;48.768;18.608;2023-03-25T01:25:03;11.53;;;4.63;;
11924;SDS011;6022;48.768;18.608;2023-03-25T01:27:30;10.77;;;6.63;;
11924;SDS011;6022;48.768;18.608;2023-03-25T01:29:57;9.83;;;6.00;;
11924;SDS011;6022;48.768;18.608;2023-03-25T01:32:25;9.30;;;5.87;;
11924;SDS011;6022;48.768;18.608;2023-03-25T01:34:54;11.70;;;7.03;;
11924;SDS011;6022;48.768;18.608;2023-03-25T01:37:24;8.40;;;5.67;;
11924;SDS011;6022;48.768;18.608;2023-03-25T01:39:52;7.60;;;4.90;;
11924;SDS011;6022;48.768;18.608;2023-03-25T01:42:20;9.20;;;5.20;;
11924;SDS011;6022;48.768;18.608;2023-03-25T01:47:17;4.97;;;4.33;;
11924;SDS011;6022;48.768;18.608;2023-03-25T01:49:45;6.60;;;4.93;;
11924;SDS011;6022;48.768;18.608;2023-03-25T01:52:13;6.67;;;4.67;;
11924;SDS011;6022;48.768;18.608;2023-03-25T01:54:46;8.80;;;4.50;;
11924;SDS011;6022;48.768;18.608;2023-03-25T01:57:19;9.53;;;6.13;;
11924;SDS011;6022;48.768;18.608;2023-03-25T01:59:50;13.90;;;8.93;;
11924;SDS011;6022;48.768;18.608;2023-03-25T02:02:19;11.67;;;7.63;;
11924;SDS011;6022;48.768;18.608;2023-03-25T02:04:52;13.30;;;6.73;;
11924;SDS011;6022;48.768;18.608;2023-03-25T02:07:26;10.70;;;6.40;;
11924;SDS011;6022;48.768;18.608;2023-03-25T02:09:58;11.80;;;7.60;;
11924;SDS011;6022;48.768;18.608;2023-03-25T02:12:30;13.13;;;8.67;;
11924;SDS011;6022;48.768;18.608;2023-03-25T02:14:58;11.33;;;8.03;;
11924;SDS011;6022;48.768;18.608;2023-03-25T02:26:19;17.57;;;8.20;;
11924;SDS011;6022;48.768;18.608;2023-03-25T02:40:45;8.47;;;6.03;;
11924;SDS011;6022;48.768;18.608;2023-03-25T02:43:34;11.33;;;8.10;;
11924;SDS011;6022;48.768;18.608;2023-03-25T02:46:17;11.53;;;7.10;;
11924;SDS011;6022;48.768;18.608;2023-03-25T02:52:05;13.17;;;7.33;;
11924;SDS011;6022;48.768;18.608;2023-03-25T02:54:39;9.53;;;6.20;;
11924;SDS011;6022;48.768;18.608;2023-03-25T02:57:11;8.57;;;4.93;;
11924;SDS011;6022;48.768;18.608;2023-03-25T02:59:45;9.03;;;6.17;;
11924;SDS011;6022;48.768;18.608;2023-03-25T03:02:16;9.87;;;6.47;;
11924;SDS011;6022;48.768;18.608;2023-03-25T03:10:07;9.47;;;5.40;;
11924;SDS011;6022;48.768;18.608;2023-03-25T03:18:13;9.63;;;4.73;;
11924;SDS011;6022;48.768;18.608;2023-03-25T03:21:21;5.83;;;5.33;;
11924;SDS011;6022;48.768;18.608;2023-03-25T03:23:59;7.87;;;5.43;;
11924;SDS011;6022;48.768;18.608;2023-03-25T03:29:56;8.47;;;5.23;;
11924;SDS011;6022;48.768;18.608;2023-03-25T03:35:22;8.63;;;5.03;;
11924;SDS011;6022;48.768;18.608;2023-03-25T03:37:58;9.03;;;6.00;;
11924;SDS011;6022;48.768;18.608;2023-03-25T03:40:31;8.00;;;5.63;;
11924;SDS011;6022;48.768;18.608;2023-03-25T03:43:45;10.50;;;5.90;;
11924;SDS011;6022;48.768;18.608;2023-03-25T03:49:38;8.80;;;6.13;;
11924;SDS011;6022;48.768;18.608;2023-03-25T03:52:28;10.20;;;6.73;;
11924;SDS011;6022;48.768;18.608;2023-03-25T03:55:09;6.67;;;5.20;;
11924;SDS011;6022;48.768;18.608;2023-03-25T03:58:13;10.10;;;5.90;;
11924;SDS011;6022;48.768;18.608;2023-03-25T04:00:53;9.53;;;5.77;;
11924;SDS011;6022;48.768;18.608;2023-03-25T04:03:44;7.63;;;5.70;;
11924;SDS011;6022;48.768;18.608;2023-03-25T04:06:26;7.07;;;5.47;;
11924;SDS011;6022;48.768;18.608;2023-03-25T04:09:13;14.17;;;6.87;;
11924;SDS011;6022;48.768;18.608;2023-03-25T04:12:00;6.70;;;4.80;;
11924;SDS011;6022;48.768;18.608;2023-03-25T04:14:36;7.90;;;5.30;;
11924;SDS011;6022;48.768;18.608;2023-03-25T04:17:05;9.67;;;5.93;;
11924;SDS011;6022;48.768;18.608;2023-03-25T04:19:32;7.80;;;4.90;;
11924;SDS011;6022;48.768;18.608;2023-03-25T04:22:03;9.20;;;6.10;;
11924;SDS011;6022;48.768;18.608;2023-03-25T04:24:32;9.07;;;5.83;;
11924;SDS011;6022;48.768;18.608;2023-03-25T04:27:04;9.20;;;5.70;;
11924;SDS011;6022;48.768;18.608;2023-03-25T04:29:32;8.73;;;5.70;;
11924;SDS011;6022;48.768;18.608;2023-03-25T04:32:11;8.37;;;5.13;;
11924;SDS011;6022;48.768;18.608;2023-03-25T04:34:39;7.80;;;5.13;;
11924;SDS011;6022;48.768;18.608;2023-03-25T04:37:09;9.87;;;5.43;;
11924;SDS011;6022;48.768;18.608;2023-03-25T04:39:37;8.73;;;5.40;;
11924;SDS011;6022;48.768;18.608;2023-03-25T04:42:05;7.97;;;5.37;;
11924;SDS011;6022;48.768;18.608;2023-03-25T04:44:32;9.20;;;5.80;;
11924;SDS011;6022;48.768;18.608;2023-03-25T04:47:05;6.20;;;5.13;;
11924;SDS011;6022;48.768;18.608;2023-03-25T04:49:37;7.57;;;5.63;;
11924;SDS011;6022;48.768;18.608;2023-03-25T04:52:16;7.30;;;5.00;;
11924;SDS011;6022;48.768;18.608;2023-03-25T04:54:44;6.70;;;4.90;;
11924;SDS011;6022;48.768;18.608;2023-03-25T04:57:13;8.27;;;5.07;;
11924;SDS011;6022;48.768;18.608;2023-03-25T04:59:40;6.23;;;5.20;;
11924;SDS011;6022;48.768;18.608;2023-03-25T05:02:09;12.10;;;6.03;;
11924;SDS011;6022;48.768;18.608;2023-03-25T05:04:43;9.73;;;6.40;;
11924;SDS011;6022;48.768;18.608;2023-03-25T05:07:13;8.50;;;4.70;;
11924;SDS011;6022;48.768;18.608;2023-03-25T05:09:42;7.73;;;5.03;;
11924;SDS011;6022;48.768;18.608;2023-03-25T05:12:13;9.07;;;6.00;;
11924;SDS011;6022;48.768;18.608;2023-03-25T05:14:41;5.20;;;4.47;;
11924;SDS011;6022;48.768;18.608;2023-03-25T05:17:11;5.73;;;4.43;;
11924;SDS011;6022;48.768;18.608;2023-03-25T05:19:41;9.80;;;4.30;;
11924;SDS011;6022;48.768;18.608;2023-03-25T05:22:17;5.30;;;4.23;;
11924;SDS011;6022;48.768;18.608;2023-03-25T05:24:47;4.70;;;3.43;;
11924;SDS011;6022;48.768;18.608;2023-03-25T05:27:19;4.40;;;3.80;;
11924;SDS011;6022;48.768;18.608;2023-03-25T05:29:46;3.57;;;3.10;;
11924;SDS011;6022;48.768;18.608;2023-03-25T05:32:21;4.37;;;3.47;;
11924;SDS011;6022;48.768;18.608;2023-03-25T05:34:59;3.77;;;2.70;;
11924;SDS011;6022;48.768;18.608;2023-03-25T05:37:28;4.90;;;3.27;;
11924;SDS011;6022;48.768;18.608;2023-03-25T05:39:58;8.30;;;3.27;;
11924;SDS011;6022;48.768;18.608;2023-03-25T05:42:30;9.83;;;3.43;;
11924;SDS011;6022;48.768;18.608;2023-03-25T05:45:01;3.20;;;2.90;;
11924;SDS011;6022;48.768;18.608;2023-03-25T05:47:29;4.50;;;3.10;;
11924;SDS011;6022;48.768;18.608;2023-03-25T05:49:56;2.37;;;1.90;;
11924;SDS011;6022;48.768;18.608;2023-03-25T05:52:24;4.27;;;3.63;;
11924;SDS011;6022;48.768;18.608;2023-03-25T05:54:52;3.57;;;3.10;;
11924;SDS011;6022;48.768;18.608;2023-03-25T05:57:21;3.33;;;3.03;;
11924;SDS011;6022;48.768;18.608;2023-03-25T05:59:50;3.07;;;2.77;;
11924;SDS011;6022;48.768;18.608;2023-03-25T06:02:17;3.20;;;2.63;;
11924;SDS011;6022;48.768;18.608;2023-03-25T06:04:49;8.80;;;3.07;;
11924;SDS011;6022;48.768;18.608;2023-03-25T06:07:16;4.17;;;2.67;;
11924;SDS011;6022;48.768;18.608;2023-03-25T06:09:52;4.07;;;3.67;;
11924;SDS011;6022;48.768;18.608;2023-03-25T06:12:22;2.60;;;2.30;;
11924;SDS011;6022;48.768;18.608;2023-03-25T06:14:53;3.47;;;2.97;;
11924;SDS011;6022;48.768;18.608;2023-03-25T06:17:20;3.17;;;2.53;;
11924;SDS011;6022;48.768;18.608;2023-03-25T06:19:48;3.10;;;2.77;;
11924;SDS011;6022;48.768;18.608;2023-03-25T06:22:20;2.83;;;1.87;;
11924;SDS011;6022;48.768;18.608;2023-03-25T06:24:47;3.80;;;2.53;;
11924;SDS011;6022;48.768;18.608;2023-03-25T06:27:15;6.27;;;2.37;;
11924;SDS011;6022;48.768;18.608;2023-03-25T06:29:45;3.00;;;2.63;;
11924;SDS011;6022;48.768;18.608;2023-03-25T06:32:13;3.07;;;2.27;;
11924;SDS011;6022;48.768;18.608;2023-03-25T06:34:41;3.57;;;2.77;;
11924;SDS011;6022;48.768;18.608;2023-03-25T06:37:10;3.47;;;2.47;;
11924;SDS011;6022;48.768;18.608;2023-03-25T06:39:37;2.30;;;2.10;;
11924;SDS011;6022;48.768;18.608;2023-03-25T06:42:05;3.10;;;2.40;;
11924;SDS011;6022;48.768;18.608;2023-03-25T06:44:33;2.43;;;2.23;;
11924;SDS011;6022;48.768;18.608;2023-03-25T06:47:00;4.47;;;2.80;;
11924;SDS011;6022;48.768;18.608;2023-03-25T06:49:29;3.13;;;2.43;;
11924;SDS011;6022;48.768;18.608;2023-03-25T06:51:57;4.30;;;2.03;;
11924;SDS011;6022;48.768;18.608;2023-03-25T06:54:24;3.13;;;2.40;;
11924;SDS011;6022;48.768;18.608;2023-03-25T06:56:52;3.50;;;2.70;;
11924;SDS011;6022;48.768;18.608;2023-03-25T06:59:21;3.50;;;2.57;;
11924;SDS011;6022;48.768;18.608;2023-03-25T07:01:51;2.87;;;2.17;;
11924;SDS011;6022;48.768;18.608;2023-03-25T07:04:19;3.20;;;2.47;;
11924;SDS011;6022;48.768;18.608;2023-03-25T07:06:46;2.20;;;2.00;;
11924;SDS011;6022;48.768;18.608;2023-03-25T07:09:14;5.53;;;3.20;;
11924;SDS011;6022;48.768;18.608;2023-03-25T07:11:41;7.33;;;3.57;;
11924;SDS011;6022;48.768;18.608;2023-03-25T07:14:09;1.73;;;1.40;;
11924;SDS011;6022;48.768;18.608;2023-03-25T07:16:36;1.73;;;1.23;;
11924;SDS011;6022;48.768;18.608;2023-03-25T07:19:20;1.07;;;0.90;;
11924;SDS011;6022;48.768;18.608;2023-03-25T07:21:57;1.60;;;1.27;;
11924;SDS011;6022;48.768;18.608;2023-03-25T07:24:32;2.13;;;1.17;;
11924;SDS011;6022;48.768;18.608;2023-03-25T07:26:59;2.23;;;1.60;;
11924;SDS011;6022;48.768;18.608;2023-03-25T07:29:35;1.50;;;1.40;;
11924;SDS011;6022;48.768;18.608;2023-03-25T07:32:02;2.43;;;1.93;;
11924;SDS011;6022;48.768;18.608;2023-03-25T07:34:33;3.33;;;1.40;;
11924;SDS011;6022;48.768;18.608;2023-03-25T07:37:02;1.33;;;1.23;;
11924;SDS011;6022;48.768;18.608;2023-03-25T07:39:32;1.40;;;1.03;;
11924;SDS011;6022;48.768;18.608;2023-03-25T07:42:04;1.37;;;1.10;;
11924;SDS011;6022;48.768;18.608;2023-03-25T07:44:32;0.50;;;0.50;;
11924;SDS011;6022;48.768;18.608;2023-03-25T07:46:59;2.57;;;1.20;;
11924;SDS011;6022;48.768;18.608;2023-03-25T07:49:34;1.43;;;1.30;;
11924;SDS011;6022;48.768;18.608;2023-03-25T07:52:02;4.47;;;1.17;;
11924;SDS011;6022;48.768;18.608;2023-03-25T07:54:32;1.03;;;0.90;;
11924;SDS011;6022;48.768;18.608;2023-03-25T07:57:04;0.90;;;0.73;;
11924;SDS011;6022;48.768;18.608;2023-03-25T07:59:34;1.93;;;1.20;;
11924;SDS011;6022;48.768;18.608;2023-03-25T08:02:01;1.13;;;1.07;;
11924;SDS011;6022;48.768;18.608;2023-03-25T08:04:29;1.53;;;1.23;;
11924;SDS011;6022;48.768;18.608;2023-03-25T08:06:57;1.30;;;0.77;;
11924;SDS011;6022;48.768;18.608;2023-03-25T08:09:24;1.13;;;0.93;;
11924;SDS011;6022;48.768;18.608;2023-03-25T08:11:52;2.67;;;1.13;;
11924;SDS011;6022;48.768;18.608;2023-03-25T08:14:20;0.77;;;0.77;;
11924;SDS011;6022;48.768;18.608;2023-03-25T08:16:48;0.60;;;0.60;;
11924;SDS011;6022;48.768;18.608;2023-03-25T08:19:18;2.40;;;1.10;;
11924;SDS011;6022;48.768;18.608;2023-03-25T08:21:45;1.03;;;0.97;;
11924;SDS011;6022;48.768;18.608;2023-03-25T08:24:15;1.50;;;0.63;;
11924;SDS011;6022;48.768;18.608;2023-03-25T08:26:42;2.50;;;1.30;;
11924;SDS011;6022;48.768;18.608;2023-03-25T08:29:12;1.20;;;1.10;;
11924;SDS011;6022;48.768;18.608;2023-03-25T08:31:43;4.60;;;1.30;;
11924;SDS011;6022;48.768;18.608;2023-03-25T08:34:19;2.13;;;1.30;;
11924;SDS011;6022;48.768;18.608;2023-03-25T08:36:54;3.00;;;1.13;;
11924;SDS011;6022;48.768;18.608;2023-03-25T08:39:21;1.30;;;1.17;;
11924;SDS011;6022;48.768;18.608;2023-03-25T08:41:55;1.10;;;1.00;;
11924;SDS011;6022;48.768;18.608;2023-03-25T08:44:24;8.97;;;1.53;;
11924;SDS011;6022;48.768;18.608;2023-03-25T08:46:52;2.23;;;1.30;;
11924;SDS011;6022;48.768;18.608;2023-03-25T08:49:19;0.80;;;0.80;;
11924;SDS011;6022;48.768;18.608;2023-03-25T08:51:46;2.50;;;0.83;;
11924;SDS011;6022;48.768;18.608;2023-03-25T08:54:13;1.23;;;0.73;;
11924;SDS011;6022;48.768;18.608;2023-03-25T08:56:40;1.27;;;0.70;;
11924;SDS011;6022;48.768;18.608;2023-03-25T08:59:08;1.27;;;0.60;;
11924;SDS011;6022;48.768;18.608;2023-03-25T09:01:35;0.87;;;0.50;;
11924;SDS011;6022;48.768;18.608;2023-03-25T09:04:03;1.80;;;0.53;;
11924;SDS011;6022;48.768;18.608;2023-03-25T09:06:31;1.13;;;0.70;;
11924;SDS011;6022;48.768;18.608;2023-03-25T09:09:14;0.50;;;0.50;;
11924;SDS011;6022;48.768;18.608;2023-03-25T09:11:43;1.37;;;0.40;;
11924;SDS011;6022;48.768;18.608;2023-03-25T09:14:10;0.33;;;0.30;;
11924;SDS011;6022;48.768;18.608;2023-03-25T09:16:38;0.83;;;0.57;;
11924;SDS011;6022;48.768;18.608;2023-03-25T09:19:05;0.63;;;0.63;;
11924;SDS011;6022;48.768;18.608;2023-03-25T09:21:33;0.50;;;0.40;;
11924;SDS011;6022;48.768;18.608;2023-03-25T09:24:00;0.50;;;0.50;;
11924;SDS011;6022;48.768;18.608;2023-03-25T09:26:27;0.30;;;0.30;;
11924;SDS011;6022;48.768;18.608;2023-03-25T09:28:55;0.60;;;0.50;;
11924;SDS011;6022;48.768;18.608;2023-03-25T09:31:22;1.87;;;0.87;;
11924;SDS011;6022;48.768;18.608;2023-03-25T09:33:49;0.60;;;0.57;;
11924;SDS011;6022;48.768;18.608;2023-03-25T09:36:16;0.47;;;0.33;;
11924;SDS011;6022;48.768;18.608;2023-03-25T09:38:44;0.67;;;0.57;;
11924;SDS011;6022;48.768;18.608;2023-03-25T09:41:19;0.67;;;0.63;;
11924;SDS011;6022;48.768;18.608;2023-03-25T09:46:51;1.60;;;0.40;;
11924;SDS011;6022;48.768;18.608;2023-03-25T09:49:24;0.30;;;0.30;;
11924;SDS011;6022;48.768;18.608;2023-03-25T09:52:14;0.80;;;0.80;;
11924;SDS011;6022;48.768;18.608;2023-03-25T09:54:59;4.37;;;0.50;;
11924;SDS011;6022;48.768;18.608;2023-03-25T09:57:35;1.17;;;0.43;;
11924;SDS011;6022;48.768;18.608;2023-03-25T10:00:19;1.80;;;0.63;;
11924;SDS011;6022;48.768;18.608;2023-03-25T10:06:02;1.20;;;0.40;;
11924;SDS011;6022;48.768;18.608;2023-03-25T10:08:48;1.87;;;0.63;;
11924;SDS011;6022;48.768;18.608;2023-03-25T10:14:32;0.80;;;0.53;;
11924;SDS011;6022;48.768;18.608;2023-03-25T10:17:27;1.23;;;0.47;;
11924;SDS011;6022;48.768;18.608;2023-03-25T10:21:13;0.47;;;0.47;;
11924;SDS011;6022;48.768;18.608;2023-03-25T10:29:44;0.60;;;0.40;;
11924;SDS011;6022;48.768;18.608;2023-03-25T10:35:46;0.50;;;0.50;;
11924;SDS011;6022;48.768;18.608;2023-03-25T10:38:21;0.90;;;0.30;;
11924;SDS011;6022;48.768;18.608;2023-03-25T10:40:51;0.70;;;0.27;;
11924;SDS011;6022;48.768;18.608;2023-03-25T10:43:38;0.47;;;0.47;;
11924;SDS011;6022;48.768;18.608;2023-03-25T10:49:04;2.17;;;0.70;;
11924;SDS011;6022;48.768;18.608;2023-03-25T10:51:32;0.37;;;0.37;;
11924;SDS011;6022;48.768;18.608;2023-03-25T10:54:01;0.50;;;0.50;;
11924;SDS011;6022;48.768;18.608;2023-03-25T10:56:31;0.40;;;0.20;;
11924;SDS011;6022;48.768;18.608;2023-03-25T10:59:25;1.53;;;0.37;;
11924;SDS011;6022;48.768;18.608;2023-03-25T11:01:57;0.23;;;0.23;;
11924;SDS011;6022;48.768;18.608;2023-03-25T11:04:31;2.17;;;0.70;;
11924;SDS011;6022;48.768;18.608;2023-03-25T11:07:08;1.00;;;0.30;;
11924;SDS011;6022;48.768;18.608;2023-03-25T11:12:52;2.27;;;0.33;;
11924;SDS011;6022;48.768;18.608;2023-03-25T11:17:58;0.80;;;0.40;;
11924;SDS011;6022;48.768;18.608;2023-03-25T11:20:51;1.70;;;0.30;;
11924;SDS011;6022;48.768;18.608;2023-03-25T11:23:30;0.57;;;0.37;;
11924;SDS011;6022;48.768;18.608;2023-03-25T11:26:18;5.47;;;0.60;;
11924;SDS011;6022;48.768;18.608;2023-03-25T11:28:59;0.30;;;0.30;;
11924;SDS011;6022;48.768;18.608;2023-03-25T11:31:33;0.77;;;0.67;;
11924;SDS011;6022;48.768;18.608;2023-03-25T11:36:51;0.30;;;0.30;;
11924;SDS011;6022;48.768;18.608;2023-03-25T11:39:29;1.73;;;0.50;;
11924;SDS011;6022;48.768;18.608;2023-03-25T11:42:13;0.93;;;0.50;;
11924;SDS011;6022;48.768;18.608;2023-03-25T11:44:51;0.27;;;0.23;;
11924;SDS011;6022;48.768;18.608;2023-03-25T11:47:23;3.87;;;2.47;;
11924;SDS011;6022;48.768;18.608;2023-03-25T11:49:57;0.00;;;0.00;;
11924;SDS011;6022;48.768;18.608;2023-03-25T11:52:26;2.30;;;0.47;;
11924;SDS011;6022;48.768;18.608;2023-03-25T11:55:13;0.23;;;0.10;;
11924;SDS011;6022;48.768;18.608;2023-03-25T11:57:45;0.27;;;0.27;;
11924;SDS011;6022;48.768;18.608;2023-03-25T12:05:40;0.17;;;0.17;;
11924;SDS011;6022;48.768;18.608;2023-03-25T12:08:15;2.10;;;0.93;;
11924;SDS011;6022;48.768;18.608;2023-03-25T12:14:28;0.63;;;0.20;;
11924;SDS011;6022;48.768;18.608;2023-03-25T12:21:23;2.70;;;0.23;;
11924;SDS011;6022;48.768;18.608;2023-03-25T12:42:16;1.50;;;0.70;;
11924;SDS011;6022;48.768;18.608;2023-03-25T12:51:46;1.03;;;0.30;;
11924;SDS011;6022;48.768;18.608;2023-03-25T12:54:46;0.40;;;0.30;;
11924;SDS011;6022;48.768;18.608;2023-03-25T13:05:59;1.40;;;0.60;;
11924;SDS011;6022;48.768;18.608;2023-03-25T13:08:50;0.20;;;0.20;;
11924;SDS011;6022;48.768;18.608;2023-03-25T13:14:15;1.30;;;0.30;;
11924;SDS011;6022;48.768;18.608;2023-03-25T13:16:49;0.67;;;0.43;;
11924;SDS011;6022;48.768;18.608;2023-03-25T13:19:23;2.77;;;0.60;;
11924;SDS011;6022;48.768;18.608;2023-03-25T13:21:55;0.10;;;0.10;;
11924;SDS011;6022;48.768;18.608;2023-03-25T13:24:33;0.50;;;0.30;;
11924;SDS011;6022;48.768;18.608;2023-03-25T13:27:21;0.23;;;0.23;;
11924;SDS011;6022;48.768;18.608;2023-03-25T13:29:50;0.10;;;0.10;;
11924;SDS011;6022;48.768;18.608;2023-03-25T13:32:25;0.27;;;0.27;;
11924;SDS011;6022;48.768;18.608;2023-03-25T13:37:56;1.90;;;0.37;;
11924;SDS011;6022;48.768;18.608;2023-03-25T13:40:34;0.30;;;0.30;;
11924;SDS011;6022;48.768;18.608;2023-03-25T13:43:18;0.20;;;0.20;;
11924;SDS011;6022;48.768;18.608;2023-03-25T13:46:26;0.10;;;0.10;;
11924;SDS011;6022;48.768;18.608;2023-03-25T13:51:51;0.60;;;0.57;;
11924;SDS011;6022;48.768;18.608;2023-03-25T13:57:27;0.83;;;0.40;;
11924;SDS011;6022;48.768;18.608;2023-03-25T14:12:58;5.73;;;0.63;;
11924;SDS011;6022;48.768;18.608;2023-03-25T14:15:38;0.30;;;0.30;;
11924;SDS011;6022;48.768;18.608;2023-03-25T14:18:29;0.00;;;0.00;;
11924;SDS011;6022;48.768;18.608;2023-03-25T14:21:10;0.13;;;0.13;;
11924;SDS011;6022;48.768;18.608;2023-03-25T14:24:04;0.00;;;0.00;;
11924;SDS011;6022;48.768;18.608;2023-03-25T14:27:04;1.27;;;0.23;;
11924;SDS011;6022;48.768;18.608;2023-03-25T14:34:52;1.30;;;0.30;;
11924;SDS011;6022;48.768;18.608;2023-03-25T14:37:26;1.13;;;0.20;;
11924;SDS011;6022;48.768;18.608;2023-03-25T14:39:57;0.10;;;0.10;;
11924;SDS011;6022;48.768;18.608;2023-03-25T14:42:40;0.40;;;0.40;;
11924;SDS011;6022;48.768;18.608;2023-03-25T14:48:01;2.80;;;0.30;;
11924;SDS011;6022;48.768;18.608;2023-03-25T14:51:05;0.10;;;0.10;;
11924;SDS011;6022;48.768;18.608;2023-03-25T15:00:04;0.00;;;0.00;;
11924;SDS011;6022;48.768;18.608;2023-03-25T15:02:42;0.07;;;0.07;;
11924;SDS011;6022;48.768;18.608;2023-03-25T15:05:44;0.10;;;0.10;;
11924;SDS011;6022;48.768;18.608;2023-03-25T15:08:31;0.00;;;0.00;;
11924;SDS011;6022;48.768;18.608;2023-03-25T15:11:25;0.30;;;0.00;;
11924;SDS011;6022;48.768;18.608;2023-03-25T15:14:14;0.73;;;0.23;;
11924;SDS011;6022;48.768;18.608;2023-03-25T15:16:55;0.43;;;0.10;;
11924;SDS011;6022;48.768;18.608;2023-03-25T15:22:33;0.30;;;0.10;;
11924;SDS011;6022;48.768;18.608;2023-03-25T15:25:16;0.40;;;0.40;;
11924;SDS011;6022;48.768;18.608;2023-03-25T15:31:29;0.10;;;0.10;;
11924;SDS011;6022;48.768;18.608;2023-03-25T15:41:04;0.20;;;0.20;;
11924;SDS011;6022;48.768;18.608;2023-03-25T15:46:49;0.23;;;0.23;;
11924;SDS011;6022;48.768;18.608;2023-03-25T15:52:16;0.10;;;0.10;;
11924;SDS011;6022;48.768;18.608;2023-03-25T15:57:43;0.10;;;0.10;;
11924;SDS011;6022;48.768;18.608;2023-03-25T16:00:27;0.20;;;0.20;;
11924;SDS011;6022;48.768;18.608;2023-03-25T16:05:30;3.83;;;0.13;;
11924;SDS011;6022;48.768;18.608;2023-03-25T16:08:14;0.27;;;0.23;;
11924;SDS011;6022;48.768;18.608;2023-03-25T16:10:50;0.13;;;0.13;;
11924;SDS011;6022;48.768;18.608;2023-03-25T16:13:17;3.03;;;1.30;;
11924;SDS011;6022;48.768;18.608;2023-03-25T16:15:52;3.47;;;0.90;;
11924;SDS011;6022;48.768;18.608;2023-03-25T16:18:23;0.47;;;0.40;;
11924;SDS011;6022;48.768;18.608;2023-03-25T16:20:55;0.77;;;0.50;;
11924;SDS011;6022;48.768;18.608;2023-03-25T16:23:27;1.23;;;0.50;;
11924;SDS011;6022;48.768;18.608;2023-03-25T16:25:56;0.20;;;0.20;;
11924;SDS011;6022;48.768;18.608;2023-03-25T16:30:58;0.33;;;0.33;;
11924;SDS011;6022;48.768;18.608;2023-03-25T16:33:29;0.43;;;0.40;;
11924;SDS011;6022;48.768;18.608;2023-03-25T16:36:08;0.80;;;0.40;;
11924;SDS011;6022;48.768;18.608;2023-03-25T16:38:42;0.17;;;0.17;;
11924;SDS011;6022;48.768;18.608;2023-03-25T16:41:10;0.53;;;0.53;;
11924;SDS011;6022;48.768;18.608;2023-03-25T16:43:40;0.30;;;0.20;;
11924;SDS011;6022;48.768;18.608;2023-03-25T16:46:09;0.20;;;0.20;;
11924;SDS011;6022;48.768;18.608;2023-03-25T16:48:51;0.70;;;0.50;;
11924;SDS011;6022;48.768;18.608;2023-03-25T16:51:20;0.27;;;0.27;;
11924;SDS011;6022;48.768;18.608;2023-03-25T16:54:00;5.80;;;0.43;;
11924;SDS011;6022;48.768;18.608;2023-03-25T16:56:36;0.10;;;0.10;;
11924;SDS011;6022;48.768;18.608;2023-03-25T16:59:06;0.73;;;0.47;;
11924;SDS011;6022;48.768;18.608;2023-03-25T17:02:02;2.17;;;0.40;;
11924;SDS011;6022;48.768;18.608;2023-03-25T17:04:48;0.10;;;0.10;;
11924;SDS011;6022;48.768;18.608;2023-03-25T17:07:16;0.10;;;0.10;;
11924;SDS011;6022;48.768;18.608;2023-03-25T17:09:54;0.77;;;0.50;;
11924;SDS011;6022;48.768;18.608;2023-03-25T17:12:25;0.60;;;0.60;;
11924;SDS011;6022;48.768;18.608;2023-03-25T17:14:55;0.93;;;0.83;;
11924;SDS011;6022;48.768;18.608;2023-03-25T17:17:38;0.33;;;0.33;;
11924;SDS011;6022;48.768;18.608;2023-03-25T17:20:16;0.40;;;0.40;;
11924;SDS011;6022;48.768;18.608;2023-03-25T17:22:57;0.20;;;0.20;;
11924;SDS011;6022;48.768;18.608;2023-03-25T17:25:33;1.13;;;0.80;;
11924;SDS011;6022;48.768;18.608;2023-03-25T17:31:32;0.30;;;0.30;;
11924;SDS011;6022;48.768;18.608;2023-03-25T17:34:12;0.70;;;0.30;;
11924;SDS011;6022;48.768;18.608;2023-03-25T17:36:46;0.20;;;0.20;;
11924;SDS011;6022;48.768;18.608;2023-03-25T17:42:18;2.13;;;0.43;;
11924;SDS011;6022;48.768;18.608;2023-03-25T17:44:50;2.20;;;0.50;;
11924;SDS011;6022;48.768;18.608;2023-03-25T17:47:18;1.20;;;1.10;;
11924;SDS011;6022;48.768;18.608;2023-03-25T17:49:52;1.80;;;0.87;;
11924;SDS011;6022;48.768;18.608;2023-03-25T17:52:26;1.43;;;0.90;;
11924;SDS011;6022;48.768;18.608;2023-03-25T17:54:57;1.50;;;0.60;;
11924;SDS011;6022;48.768;18.608;2023-03-25T17:57:24;0.80;;;0.60;;
11924;SDS011;6022;48.768;18.608;2023-03-25T17:59:54;1.10;;;0.40;;
11924;SDS011;6022;48.768;18.608;2023-03-25T18:02:29;2.10;;;0.80;;
11924;SDS011;6022;48.768;18.608;2023-03-25T18:04:56;0.57;;;0.57;;
11924;SDS011;6022;48.768;18.608;2023-03-25T18:10:33;2.47;;;1.27;;
11924;SDS011;6022;48.768;18.608;2023-03-25T18:13:03;0.87;;;0.87;;
11924;SDS011;6022;48.768;18.608;2023-03-25T18:15:30;0.93;;;0.70;;
11924;SDS011;6022;48.768;18.608;2023-03-25T18:18:18;0.20;;;0.20;;
11924;SDS011;6022;48.768;18.608;2023-03-25T18:20:52;0.90;;;0.63;;
11924;SDS011;6022;48.768;18.608;2023-03-25T18:23:29;1.03;;;0.90;;
11924;SDS011;6022;48.768;18.608;2023-03-25T18:25:58;0.63;;;0.33;;
11924;SDS011;6022;48.768;18.608;2023-03-25T18:28:29;0.40;;;0.40;;
11924;SDS011;6022;48.768;18.608;2023-03-25T18:31:17;0.30;;;0.17;;
11924;SDS011;6022;48.768;18.608;2023-03-25T18:34:11;0.37;;;0.37;;
11924;SDS011;6022;48.768;18.608;2023-03-25T18:36:43;0.17;;;0.17;;
11924;SDS011;6022;48.768;18.608;2023-03-25T18:39:15;0.10;;;0.10;;
11924;SDS011;6022;48.768;18.608;2023-03-25T18:42:06;0.60;;;0.60;;
11924;SDS011;6022;48.768;18.608;2023-03-25T18:44:34;0.13;;;0.13;;
11924;SDS011;6022;48.768;18.608;2023-03-25T18:47:21;2.63;;;0.63;;